createdAt,value
2018-09-05T00:00:28.708Z,88.06
2018-09-05T00:02:58.284Z,87.86
2018-09-05T00:05:27.200Z,87.57
2018-09-05T00:07:56.275Z,88.02
2018-09-05T00:10:25.209Z,88.12
2018-09-05T00:12:54.152Z,87.63
2018-09-05T00:15:23.189Z,87.49
2018-09-05T00:17:52.284Z,88.56
2018-09-05T00:20:21.278Z,89.42
2018-09-05T00:22:50.220Z,88.91
2018-09-05T00:25:19.161Z,88.91
2018-09-05T00:27:48.113Z,89.14
2018-09-05T00:30:17.044Z,89.55
2018-09-05T00:32:45.973Z,88.41
2018-09-05T00:35:14.902Z,90.25
2018-09-05T00:37:43.838Z,89.17
2018-09-05T00:40:12.796Z,89.54
2018-09-05T00:42:41.902Z,88.98
2018-09-05T00:45:10.897Z,88.92
2018-09-05T00:47:40.680Z,88.71
2018-09-05T00:50:09.617Z,89.83
2018-09-05T00:52:38.676Z,90.34
2018-09-05T00:55:07.710Z,90.62
2018-09-05T00:57:36.635Z,90.43
2018-09-05T01:00:05.838Z,89.90
2018-09-05T01:02:34.810Z,91.83
2018-09-05T01:05:03.806Z,90.83
2018-09-05T01:07:32.739Z,92.06
2018-09-05T01:10:01.687Z,91.15
2018-09-05T01:12:32.253Z,91.26
2018-09-05T01:15:01.214Z,90.73
2018-09-05T01:17:30.257Z,91.85
2018-09-05T01:19:59.221Z,91.43
2018-09-05T01:22:28.196Z,90.66
2018-09-05T01:24:57.202Z,91.70
2018-09-05T01:27:26.134Z,91.83
2018-09-05T01:29:57.065Z,92.52
2018-09-05T01:32:26.026Z,91.03
2018-09-05T01:34:54.968Z,91.06
2018-09-05T01:37:23.949Z,91.39
2018-09-05T01:39:52.894Z,91.26
2018-09-05T01:42:21.861Z,90.75
2018-09-05T01:44:50.834Z,91.09
2018-09-05T01:47:19.827Z,91.61
2018-09-05T01:49:48.835Z,91.74
2018-09-05T01:52:17.762Z,91.21
2018-09-05T01:54:46.749Z,90.88
2018-09-05T01:57:15.742Z,91.06
2018-09-05T01:59:44.733Z,90.37
2018-09-05T02:02:14.170Z,90.90
2018-09-05T02:04:43.108Z,91.20
2018-09-05T02:07:12.047Z,91.74
2018-09-05T02:09:40.984Z,92.30
2018-09-05T02:12:09.941Z,91.44
2018-09-05T02:14:38.845Z,91.37
2018-09-05T02:17:07.809Z,91.41
2018-09-05T02:19:36.772Z,92.37
2018-09-05T02:22:05.828Z,92.86
2018-09-05T02:24:34.907Z,91.92
2018-09-05T02:27:03.875Z,91.97
2018-09-05T02:29:32.957Z,92.48
2018-09-05T02:32:02.274Z,93.08
2018-09-05T02:34:31.225Z,92.06
2018-09-05T02:37:00.184Z,92.92
2018-09-05T02:39:29.134Z,93.52
2018-09-05T02:41:58.145Z,93.28
2018-09-05T02:47:09.043Z,93.01
2018-09-05T02:49:38.068Z,94.06
2018-09-05T02:52:07.081Z,94.92
2018-09-05T02:54:36.103Z,93.91
2018-09-05T02:57:05.238Z,94.37
2018-09-05T02:59:34.188Z,93.70
2018-09-05T03:02:03.360Z,93.59
2018-09-05T03:04:32.332Z,94.28
2018-09-05T03:07:01.302Z,94.73
2018-09-05T03:09:30.347Z,94.14
2018-09-05T03:11:59.388Z,94.47
2018-09-05T03:14:28.332Z,95.12
2018-09-05T03:16:57.318Z,95.87
2018-09-05T03:19:26.272Z,95.11
2018-09-05T03:21:55.414Z,95.24
2018-09-05T03:24:24.340Z,95.67
2018-09-05T03:26:53.918Z,96.50
2018-09-05T03:29:23.042Z,95.78
2018-09-05T03:31:52.102Z,96.13
2018-09-05T03:34:21.059Z,96.27
2018-09-05T03:36:50.072Z,96.31
2018-09-05T03:39:19.014Z,95.19
2018-09-05T03:41:48.027Z,95.11
2018-09-05T03:44:16.984Z,96.10
2018-09-05T03:46:45.949Z,95.63
2018-09-05T03:49:14.917Z,96.20
2018-09-05T03:51:43.884Z,95.68
2018-09-05T03:54:12.839Z,95.73
2018-09-05T03:56:41.791Z,95.69
2018-09-05T03:59:10.715Z,96.39
2018-09-05T04:01:39.681Z,96.42
2018-09-05T04:04:08.701Z,96.53
2018-09-05T04:06:37.653Z,96.37
2018-09-05T04:09:08.088Z,95.80
2018-09-05T04:11:37.386Z,96.67
2018-09-05T04:14:06.378Z,96.47
2018-09-05T04:16:35.342Z,96.90
2018-09-05T04:19:04.328Z,96.34
2018-09-05T04:21:33.352Z,96.96
2018-09-05T04:24:02.351Z,96.08
2018-09-05T04:26:31.462Z,96.85
2018-09-05T04:29:00.641Z,97.98
2018-09-05T04:31:29.638Z,97.84
2018-09-05T04:33:58.579Z,98.03
2018-09-05T04:36:27.531Z,98.09
2018-09-05T04:38:56.500Z,98.46
2018-09-05T04:41:25.560Z,98.23
2018-09-05T04:43:54.533Z,98.17
2018-09-05T04:46:23.452Z,98.19
2018-09-05T04:48:52.421Z,97.91
2018-09-05T04:51:21.453Z,96.39
2018-09-05T04:53:51.453Z,97.08
2018-09-05T04:56:20.405Z,96.92
2018-09-05T04:58:54.156Z,97.81
2018-09-05T05:01:23.141Z,98.24
2018-09-05T05:03:52.095Z,98.21
2018-09-05T05:06:21.078Z,97.57
2018-09-05T05:08:50.047Z,97.71
2018-09-05T05:11:19.047Z,97.73
2018-09-05T05:13:48.120Z,97.32
2018-09-05T05:16:17.035Z,97.36
2018-09-05T05:18:46.003Z,97.63
2018-09-05T05:21:14.941Z,97.03
2018-09-05T05:23:43.938Z,97.69
2018-09-05T05:26:12.902Z,96.45
2018-09-05T05:28:41.858Z,96.84
2018-09-05T05:31:10.804Z,97.20
2018-09-05T05:33:39.780Z,97.44
2018-09-05T05:36:08.738Z,97.06
2018-09-05T05:38:37.709Z,96.79
2018-09-05T05:41:07.007Z,97.31
2018-09-05T05:43:35.909Z,96.52
2018-09-05T05:46:04.882Z,96.92
2018-09-05T05:48:33.815Z,96.38
2018-09-05T05:51:03.009Z,96.14
2018-09-05T05:53:32.019Z,96.60
2018-09-05T05:56:01.168Z,96.79
2018-09-05T05:58:30.324Z,95.47
2018-09-05T06:00:59.672Z,95.46
2018-09-05T06:03:28.535Z,95.31
2018-09-05T06:05:57.540Z,94.99
2018-09-05T06:08:26.492Z,94.76
2018-09-05T06:10:55.469Z,93.50
2018-09-05T06:13:24.424Z,91.09
2018-09-05T06:15:53.352Z,88.12
2018-09-05T06:18:22.322Z,85.98
2018-09-05T06:20:51.391Z,78.86
2018-09-05T06:23:20.413Z,74.46
2018-09-05T06:25:49.365Z,69.92
2018-09-05T06:28:18.477Z,67.58
2018-09-05T06:30:47.521Z,65.70
2018-09-05T06:33:18.368Z,64.89
2018-09-05T06:35:48.038Z,62.35
2018-09-05T06:38:17.055Z,64.75
2018-09-05T06:40:45.975Z,63.01
2018-09-05T06:43:14.960Z,63.58
2018-09-05T06:45:44.110Z,62.17
2018-09-05T06:48:13.119Z,60.80
2018-09-05T06:50:42.108Z,59.71
2018-09-05T06:53:11.072Z,58.85
2018-09-05T06:55:40.032Z,58.50
2018-09-05T06:58:09.024Z,59.92
2018-09-05T07:00:38.024Z,57.54
2018-09-05T07:03:07.066Z,56.37
2018-09-05T07:05:36.046Z,58.30
2018-09-05T07:08:05.069Z,56.12
2018-09-05T07:10:34.026Z,55.87
2018-09-05T07:13:02.961Z,52.79
2018-09-05T07:15:31.956Z,50.91
2018-09-05T07:18:01.078Z,51.49
2018-09-05T07:20:30.051Z,49.56
2018-09-05T07:22:58.990Z,48.07
2018-09-05T07:25:27.940Z,46.45
2018-09-05T07:27:56.877Z,48.87
2018-09-05T07:30:25.910Z,52.31
2018-09-05T07:32:54.800Z,52.66
2018-09-05T07:35:23.751Z,49.68
2018-09-05T07:37:52.695Z,49.87
2018-09-05T07:40:21.657Z,47.85
2018-09-05T07:42:56.435Z,48.02
2018-09-05T07:45:25.431Z,47.86
2018-09-05T07:47:54.349Z,48.79
2018-09-05T07:50:23.318Z,50.29
2018-09-05T07:52:52.267Z,52.63
2018-09-05T07:55:21.190Z,50.99
2018-09-05T07:57:50.174Z,48.64
2018-09-05T08:00:19.175Z,49.53
2018-09-05T08:02:48.164Z,50.05
2018-09-05T08:05:17.151Z,52.23
2018-09-05T08:07:46.091Z,49.50
2018-09-05T08:10:15.206Z,49.65
2018-09-05T08:12:44.128Z,49.37
2018-09-05T08:15:13.096Z,47.84
2018-09-05T08:17:42.152Z,46.32
2018-09-05T08:20:11.191Z,45.35
2018-09-05T08:22:40.223Z,44.90
2018-09-05T08:25:09.158Z,44.79
2018-09-05T08:27:38.143Z,43.42
2018-09-05T08:30:07.145Z,44.72
2018-09-05T08:32:36.101Z,44.21
2018-09-05T08:35:05.205Z,44.09
2018-09-05T08:37:34.344Z,44.81
2018-09-05T08:40:03.097Z,39.89
2018-09-05T08:42:34.911Z,42.92
2018-09-05T08:45:04.938Z,41.67
2018-09-05T08:47:34.346Z,44.67
2018-09-05T08:50:03.289Z,45.03
2018-09-05T08:52:32.252Z,47.15
2018-09-05T08:55:01.289Z,50.19
2018-09-05T08:57:30.168Z,49.46
2018-09-05T08:59:59.106Z,47.04
2018-09-05T09:02:28.046Z,43.11
2018-09-05T09:04:56.991Z,41.45
2018-09-05T09:07:26.038Z,41.13
2018-09-05T09:09:55.286Z,39.65
2018-09-05T09:12:24.236Z,38.31
2018-09-05T09:14:53.189Z,36.89
2018-09-05T09:17:22.169Z,39.05
2018-09-05T09:19:51.133Z,42.15
2018-09-05T09:22:20.072Z,39.44
2018-09-05T09:24:49.068Z,38.49
2018-09-05T09:27:18.090Z,38.51
2018-09-05T09:29:47.105Z,38.83
2018-09-05T09:32:16.095Z,41.09
2018-09-05T09:34:45.070Z,37.94
2018-09-05T09:37:14.030Z,36.55
2018-09-05T09:39:43.327Z,36.69
2018-09-05T09:42:12.284Z,38.06
2018-09-05T09:44:41.211Z,38.33
2018-09-05T09:47:10.170Z,35.35
2018-09-05T09:49:39.173Z,35.05
2018-09-05T09:52:13.559Z,38.41
2018-09-05T09:54:42.498Z,36.13
2018-09-05T09:57:11.569Z,36.55
2018-09-05T09:59:40.571Z,36.38
2018-09-05T10:02:15.201Z,35.73
2018-09-05T10:04:49.499Z,36.25
2018-09-05T10:07:23.771Z,36.83
2018-09-05T10:09:54.813Z,37.44
2018-09-05T10:12:28.975Z,34.05
2018-09-05T10:15:02.621Z,33.78
2018-09-05T10:17:34.074Z,34.33
2018-09-05T10:20:03.273Z,35.38
2018-09-05T10:22:32.749Z,35.80
2018-09-05T10:25:01.741Z,36.46
2018-09-05T10:27:30.754Z,34.22
2018-09-05T10:29:59.733Z,36.42
2018-09-05T10:32:28.673Z,32.39
2018-09-05T10:34:57.606Z,31.74
2018-09-05T10:37:26.534Z,35.35
2018-09-05T10:39:55.476Z,34.56
2018-09-05T10:42:24.442Z,31.74
2018-09-05T10:44:53.479Z,30.36
2018-09-05T10:47:22.401Z,33.62
2018-09-05T10:49:51.347Z,34.00
2018-09-05T10:52:20.272Z,33.16
2018-09-05T10:54:49.205Z,35.52
2018-09-05T10:57:18.120Z,33.77
2018-09-05T10:59:47.051Z,33.45
2018-09-05T11:02:16.020Z,32.55
2018-09-05T11:04:44.924Z,33.21
2018-09-05T11:07:14.505Z,36.50
2018-09-05T11:09:43.452Z,34.87
2018-09-05T11:12:12.383Z,31.99
2018-09-05T11:14:41.582Z,35.37
2018-09-05T11:17:10.514Z,37.06
2018-09-05T11:19:39.484Z,38.99
2018-09-05T11:22:08.461Z,41.59
2018-09-05T11:24:37.410Z,40.08
2018-09-05T11:27:06.412Z,43.52
2018-09-05T11:29:35.361Z,41.46
2018-09-05T11:32:04.296Z,41.85
2018-09-05T11:34:33.237Z,40.52
2018-09-05T11:37:02.215Z,40.37
2018-09-05T11:39:31.123Z,40.86
2018-09-05T11:42:00.090Z,38.55
2018-09-05T11:44:29.027Z,37.19
2018-09-05T11:46:57.971Z,34.22
2018-09-05T11:49:26.924Z,33.84
2018-09-05T11:51:55.863Z,34.47
2018-09-05T11:54:24.794Z,34.04
2018-09-05T11:56:53.726Z,32.54
2018-09-05T11:59:22.647Z,35.34
2018-09-05T12:01:51.557Z,37.34
2018-09-05T12:04:20.520Z,38.04
2018-09-05T12:06:49.468Z,38.40
2018-09-05T12:09:19.076Z,41.21
2018-09-05T12:11:48.145Z,40.79
2018-09-05T12:14:17.008Z,41.61
2018-09-05T12:16:45.937Z,37.92
2018-09-05T12:19:14.906Z,35.91
2018-09-05T12:21:43.845Z,31.07
2018-09-05T12:24:12.772Z,33.18
2018-09-05T12:26:41.725Z,33.07
2018-09-05T12:29:11.883Z,32.03
2018-09-05T12:31:41.572Z,31.10
2018-09-05T12:34:10.892Z,29.32
2018-09-05T12:36:39.895Z,28.59
2018-09-05T12:39:11.337Z,27.49
2018-09-05T12:41:40.548Z,28.95
2018-09-05T12:44:09.696Z,28.17
2018-09-05T12:46:38.932Z,30.82
2018-09-05T12:49:07.881Z,28.25
2018-09-05T12:51:37.019Z,28.70
2018-09-05T12:54:06.421Z,31.41
2018-09-05T12:56:35.361Z,31.76
2018-09-05T12:59:04.284Z,29.74
2018-09-05T13:01:33.222Z,30.90
2018-09-05T13:04:02.425Z,30.41
2018-09-05T13:06:31.398Z,29.69
2018-09-05T13:09:00.359Z,30.22
2018-09-05T13:11:29.490Z,28.58
2018-09-05T13:13:58.410Z,28.61
2018-09-05T13:16:27.368Z,30.53
2018-09-05T13:18:56.329Z,30.79
2018-09-05T13:21:25.251Z,30.59
2018-09-05T13:23:54.184Z,31.05
2018-09-05T13:26:23.106Z,30.44
2018-09-05T13:28:52.045Z,30.33
2018-09-05T13:31:20.988Z,30.78
2018-09-05T13:33:49.903Z,30.97
2018-09-05T13:36:18.850Z,30.29
2018-09-05T13:38:47.785Z,27.64
2018-09-05T13:41:16.842Z,27.39
2018-09-05T13:43:45.776Z,30.12
2018-09-05T13:46:14.713Z,30.61
2018-09-05T13:48:43.641Z,29.53
2018-09-05T13:51:12.612Z,28.96
2018-09-05T13:53:41.550Z,30.86
2018-09-05T13:56:10.656Z,29.18
2018-09-05T13:58:39.608Z,30.67
2018-09-05T14:01:08.538Z,27.62
2018-09-05T14:03:37.471Z,30.51
2018-09-05T14:06:06.433Z,31.09
2018-09-05T14:08:35.410Z,30.27
2018-09-05T14:11:04.339Z,30.37
2018-09-05T14:13:33.441Z,29.40
2018-09-05T14:16:02.338Z,30.54
2018-09-05T14:18:31.253Z,30.12
2018-09-05T14:21:00.198Z,30.36
2018-09-05T14:23:29.282Z,31.16
2018-09-05T14:25:58.248Z,30.91
2018-09-05T14:28:27.211Z,28.45
2018-09-05T14:30:56.477Z,29.59
2018-09-05T14:33:25.443Z,29.86
2018-09-05T14:35:54.784Z,31.33
2018-09-05T14:38:23.728Z,30.25
2018-09-05T14:40:52.666Z,31.17
2018-09-05T14:43:22.188Z,31.50
2018-09-05T14:45:51.156Z,33.23
2018-09-05T14:48:20.180Z,32.01
2018-09-05T14:50:49.320Z,32.82
2018-09-05T14:53:18.252Z,32.92
2018-09-05T14:55:47.273Z,33.99
2018-09-05T14:58:16.258Z,34.62
2018-09-05T15:00:45.202Z,34.74
2018-09-05T15:03:14.165Z,33.12
2018-09-05T15:05:43.083Z,32.52
2018-09-05T15:08:12.123Z,32.27
2018-09-05T15:10:41.091Z,33.35
2018-09-05T15:13:10.021Z,32.04
2018-09-05T15:15:39.019Z,31.48
2018-09-05T15:18:07.936Z,33.32
2018-09-05T15:20:36.973Z,31.92
2018-09-05T15:23:06.353Z,33.05
2018-09-05T15:25:35.490Z,32.96
2018-09-05T15:28:04.412Z,32.48
2018-09-05T15:30:33.333Z,32.41
2018-09-05T15:33:02.321Z,32.82
2018-09-05T15:35:31.296Z,33.69
2018-09-05T15:38:00.270Z,31.98
2018-09-05T15:40:29.366Z,32.88
2018-09-05T15:42:58.416Z,33.22
2018-09-05T15:45:28.252Z,32.80
2018-09-05T15:47:57.213Z,32.63
2018-09-05T15:50:26.154Z,34.80
2018-09-05T15:52:55.097Z,33.38
2018-09-05T15:55:24.414Z,33.64
2018-09-05T15:57:53.352Z,33.03
2018-09-05T16:00:22.304Z,32.68
2018-09-05T16:02:51.352Z,33.90
2018-09-05T16:05:20.280Z,35.41
2018-09-05T16:07:49.318Z,35.25
2018-09-05T16:10:18.316Z,36.36
2018-09-05T16:12:47.173Z,35.88
2018-09-05T16:15:16.280Z,35.02
2018-09-05T16:17:45.165Z,36.17
2018-09-05T16:20:14.131Z,35.68
2018-09-05T16:22:43.147Z,37.46
2018-09-05T16:25:12.240Z,36.34
2018-09-05T16:27:41.186Z,37.25
2018-09-05T16:30:10.162Z,38.41
2018-09-05T16:32:39.109Z,37.88
2018-09-05T16:35:08.042Z,37.08
2018-09-05T16:37:36.957Z,38.14
2018-09-05T16:40:06.019Z,39.23
2018-09-05T16:42:34.944Z,39.44
2018-09-05T16:45:03.907Z,41.52
2018-09-05T16:47:32.913Z,42.52
2018-09-05T16:50:01.904Z,41.74
2018-09-05T16:52:31.172Z,40.48
2018-09-05T16:55:00.352Z,42.12
2018-09-05T16:57:29.284Z,42.08
2018-09-05T16:59:58.224Z,42.04
2018-09-05T17:02:27.201Z,41.49
2018-09-05T17:04:56.217Z,43.36
2018-09-05T17:07:25.208Z,44.62
2018-09-05T17:09:54.257Z,45.51
2018-09-05T17:12:23.142Z,44.21
2018-09-05T17:14:52.195Z,44.25
2018-09-05T17:17:21.108Z,45.87
2018-09-05T17:19:50.085Z,45.97
2018-09-05T17:22:19.025Z,45.93
2018-09-05T17:24:48.037Z,47.90
2018-09-05T17:27:17.107Z,47.96
2018-09-05T17:29:46.045Z,48.87
2018-09-05T17:32:15.022Z,49.04
2018-09-05T17:34:44.041Z,48.38
2018-09-05T17:37:13.043Z,48.61
2018-09-05T17:39:42.140Z,50.03
2018-09-05T17:42:10.755Z,50.68
2018-09-05T17:44:39.424Z,50.33
2018-09-05T17:47:08.377Z,52.71
2018-09-05T17:49:37.367Z,52.34
2018-09-05T17:52:06.318Z,51.56
2018-09-05T17:54:35.272Z,53.25
2018-09-05T17:57:04.346Z,53.15
2018-09-05T17:59:33.343Z,53.16
2018-09-05T18:02:02.377Z,53.33
2018-09-05T18:04:31.376Z,54.87
2018-09-05T18:07:00.354Z,54.54
2018-09-05T18:09:29.320Z,54.89
2018-09-05T18:11:58.351Z,55.12
2018-09-05T18:14:27.313Z,55.65
2018-09-05T18:16:56.334Z,55.49
2018-09-05T18:19:25.313Z,54.28
2018-09-05T18:21:54.331Z,54.56
2018-09-05T18:24:23.359Z,56.07
2018-09-05T18:26:52.200Z,54.84
2018-09-05T18:29:21.315Z,55.51
2018-09-05T18:31:50.348Z,56.17
2018-09-05T18:34:19.316Z,56.15
2018-09-05T18:36:48.295Z,56.67
2018-09-05T18:39:17.217Z,56.94
2018-09-05T18:41:46.168Z,57.50
2018-09-05T18:44:15.122Z,57.20
2018-09-05T18:46:44.107Z,58.02
2018-09-05T18:49:13.090Z,58.83
2018-09-05T18:51:41.969Z,58.67
2018-09-05T18:54:10.989Z,59.12
2018-09-05T18:56:39.933Z,59.22
2018-09-05T18:59:08.991Z,59.58
2018-09-05T19:01:38.065Z,58.50
2018-09-05T19:04:07.265Z,59.23
2018-09-05T19:06:36.254Z,60.07
2018-09-05T19:09:08.887Z,59.63
2018-09-05T19:11:38.055Z,59.97
2018-09-05T19:14:07.170Z,60.09
2018-09-05T19:16:36.105Z,60.22
2018-09-05T19:19:05.164Z,60.51
2018-09-05T19:21:34.130Z,61.17
2018-09-05T19:24:04.957Z,61.37
2018-09-05T19:26:34.013Z,62.51
2018-09-05T19:29:03.176Z,61.97
2018-09-05T19:31:32.101Z,61.61
2018-09-05T19:34:01.105Z,61.90
2018-09-05T19:36:30.127Z,60.53
2018-09-05T19:38:59.130Z,61.39
2018-09-05T19:41:28.052Z,60.62
2018-09-05T19:43:57.132Z,63.43
2018-09-05T19:46:26.119Z,63.01
2018-09-05T19:48:55.093Z,63.91
2018-09-05T19:51:24.069Z,66.41
2018-09-05T19:53:53.074Z,65.03
2018-09-05T19:56:22.266Z,66.69
2018-09-05T19:58:51.225Z,67.91
2018-09-05T20:01:20.269Z,65.77
2018-09-05T20:03:49.313Z,66.24
2018-09-05T20:06:18.339Z,65.22
2018-09-05T20:08:47.509Z,65.32
2018-09-05T20:11:16.481Z,64.59
2018-09-05T20:13:45.451Z,64.63
2018-09-05T20:16:15.408Z,67.73
2018-09-05T20:18:44.391Z,66.35
2018-09-05T20:21:13.352Z,67.03
2018-09-05T20:23:42.289Z,69.15
2018-09-05T20:26:11.414Z,68.18
2018-09-05T20:28:40.532Z,69.38
2018-09-05T20:31:09.532Z,69.50
2018-09-05T20:33:38.580Z,68.48
2018-09-05T20:36:07.550Z,70.73
2018-09-05T20:38:36.554Z,69.60
2018-09-05T20:41:05.510Z,70.03
2018-09-05T20:43:34.450Z,69.73
2018-09-05T20:46:03.464Z,71.43
2018-09-05T20:48:32.487Z,71.09
2018-09-05T20:51:01.450Z,70.42
2018-09-05T20:53:30.370Z,70.64
2018-09-05T20:55:59.378Z,73.19
2018-09-05T20:58:28.602Z,72.00
2018-09-05T21:00:57.872Z,71.39
2018-09-05T21:03:26.825Z,72.63
2018-09-05T21:05:55.893Z,72.78
2018-09-05T21:08:24.864Z,71.98
2018-09-05T21:10:53.802Z,73.98
2018-09-05T21:13:22.825Z,73.03
2018-09-05T21:15:51.838Z,73.66
2018-09-05T21:18:20.794Z,73.97
2018-09-05T21:20:50.365Z,73.74
2018-09-05T21:23:19.279Z,73.89
2018-09-05T21:25:48.193Z,75.68
2018-09-05T21:28:17.139Z,74.14
2018-09-05T21:30:46.134Z,73.67
2018-09-05T21:33:15.066Z,75.39
2018-09-05T21:35:44.058Z,75.20
2018-09-05T21:38:12.994Z,74.19
2018-09-05T21:40:41.980Z,76.63
2018-09-05T21:43:10.950Z,76.36
2018-09-05T21:45:39.889Z,76.75
2018-09-05T21:48:08.819Z,75.40
2018-09-05T21:50:37.925Z,75.54
2018-09-05T21:53:06.903Z,75.43
2018-09-05T21:55:35.910Z,75.84
2018-09-05T21:58:04.794Z,76.22
2018-09-05T22:00:33.699Z,75.73
2018-09-05T22:03:02.624Z,75.65
2018-09-05T22:05:31.595Z,75.09
2018-09-05T22:08:00.524Z,76.36
2018-09-05T22:10:29.465Z,76.31
2018-09-05T22:12:58.478Z,76.71
2018-09-05T22:15:30.847Z,76.94
2018-09-05T22:17:59.773Z,76.96
2018-09-05T22:20:28.741Z,77.08
2018-09-05T22:22:57.703Z,78.14
2018-09-05T22:25:26.625Z,77.11
2018-09-05T22:27:55.517Z,77.96
2018-09-05T22:30:24.409Z,77.48
2018-09-05T22:32:53.362Z,77.30
2018-09-05T22:35:22.279Z,77.60
2018-09-05T22:37:51.221Z,77.47
2018-09-05T22:40:20.241Z,78.93
2018-09-05T22:43:00.522Z,78.38
2018-09-05T22:45:40.966Z,79.50
2018-09-05T22:48:29.230Z,78.92
2018-09-05T22:51:13.698Z,78.28
2018-09-05T22:53:59.046Z,78.27
2018-09-05T22:57:58.369Z,79.85
2018-09-05T23:00:41.300Z,80.06
2018-09-05T23:03:27.137Z,81.39
2018-09-05T23:08:11.450Z,81.56
2018-09-05T23:10:51.809Z,82.44
2018-09-05T23:13:34.014Z,82.41
2018-09-05T23:16:16.303Z,82.51
2018-09-05T23:19:25.878Z,83.10
2018-09-05T23:21:54.825Z,83.16
2018-09-05T23:24:24.857Z,82.82
2018-09-05T23:27:00.539Z,83.66
2018-09-05T23:29:29.466Z,83.43
2018-09-05T23:31:58.490Z,83.23
2018-09-05T23:34:27.482Z,83.63
2018-09-05T23:36:56.474Z,84.12
2018-09-05T23:39:25.388Z,84.16
2018-09-05T23:41:54.310Z,83.87
2018-09-05T23:44:23.242Z,84.53
2018-09-05T23:46:52.244Z,84.24
2018-09-05T23:49:21.154Z,84.13
2018-09-05T23:51:50.084Z,84.31
2018-09-05T23:54:18.981Z,84.39
2018-09-05T23:56:47.935Z,84.34
2018-09-05T23:59:16.930Z,83.84
